Time;durP1;ratioP1;P1;durP2;ratioP2;P2;SDS_P1;SDS_P2;PMS_P1;PMS_P2;Temp;Humidity;BMP_temperature;BMP_pressure;BME280_temperature;BME280_humidity;BME280_pressure;Samples;Min_cycle;Max_cycle;Signal;HPM_P1;HPM_P2
2022/09/22 00:01:18;;;;;;;5.13;3.75;;;;;;;-145.49;100.00;62790.56;4968641;28;20046;-72
2022/09/22 00:03:48;;;;;;;4.32;3.05;;;;;;;-145.49;100.00;62790.56;4972898;28;20047;-72
2022/09/22 00:06:19;;;;;;;4.00;3.25;;;;;;;-145.49;100.00;62790.56;4973089;28;20035;-72
2022/09/22 00:08:50;;;;;;;3.53;3.22;;;;;;;-145.49;100.00;62790.56;4971493;28;20412;-72
2022/09/22 00:11:16;;;;;;;4.80;2.95;;;;;;;-145.49;100.00;62790.56;4971440;28;20412;-73
2022/09/22 00:13:49;;;;;;;9.15;3.72;;;;;;;-145.49;100.00;62790.56;4972286;28;20035;-72
2022/09/22 00:16:17;;;;;;;4.45;3.25;;;;;;;-145.49;100.00;62790.56;4939658;28;20038;-72
2022/09/22 00:18:46;;;;;;;4.03;2.72;;;;;;;-145.49;100.00;62790.56;4972249;28;20031;-73
2022/09/22 00:21:16;;;;;;;3.30;2.90;;;;;;;-145.49;100.00;62790.56;4970892;28;20038;-71
2022/09/22 00:23:43;;;;;;;3.78;3.42;;;;;;;-145.49;100.00;62790.56;4955075;28;20039;-72
2022/09/22 00:26:17;;;;;;;6.10;3.97;;;;;;;-145.49;100.00;62790.56;4968697;28;20034;-72
2022/09/22 00:28:44;;;;;;;4.65;2.97;;;;;;;-145.49;100.00;62790.56;4971578;28;20027;-72
2022/09/22 00:31:16;;;;;;;8.25;3.72;;;;;;;-145.49;100.00;62790.56;4971310;28;20057;-72
2022/09/22 00:33:45;;;;;;;4.95;3.55;;;;;;;-145.49;100.00;62790.56;4970997;28;20046;-73
2022/09/22 00:36:15;;;;;;;3.65;3.03;;;;;;;-145.49;100.00;62790.56;4972324;28;20049;-73
2022/09/22 00:38:42;;;;;;;3.78;3.10;;;;;;;-145.49;100.00;62790.56;4981539;28;20058;-73
2022/09/22 00:41:15;;;;;;;8.23;3.72;;;;;;;-145.49;100.00;62790.56;4975429;28;20045;-74
2022/09/22 00:43:47;;;;;;;3.60;2.95;;;;;;;-145.49;100.00;62790.56;4973579;28;20046;-73
2022/09/22 00:46:29;;;;;;;2.88;2.63;;;;;;;-145.49;100.00;62790.56;4971708;28;20061;-73
2022/09/22 00:48:59;;;;;;;4.15;3.00;;;;;;;-145.49;100.00;62790.56;4964483;28;20035;-73
2022/09/22 00:51:31;;;;;;;3.58;2.92;;;;;;;-145.49;100.00;62790.56;4971757;28;20034;-73
2022/09/22 00:54:01;;;;;;;4.70;2.42;;;;;;;-145.49;100.00;62790.56;4972581;28;20404;-73
2022/09/22 00:56:46;;;;;;;2.75;2.28;;;;;;;-145.49;100.00;62790.56;4970425;28;20511;-73
2022/09/22 00:59:19;;;;;;;3.35;3.05;;;;;;;-145.49;100.00;62790.56;4970871;28;20049;-73
2022/09/22 01:01:46;;;;;;;4.20;3.50;;;;;;;-145.49;100.00;62790.56;4971641;28;20420;-73
2022/09/22 01:04:13;;;;;;;3.35;2.42;;;;;;;-145.49;100.00;62790.56;4953603;28;20485;-72
2022/09/22 01:06:40;;;;;;;8.32;3.17;;;;;;;-145.49;100.00;62790.56;4953277;28;20038;-72
2022/09/22 01:09:07;;;;;;;5.85;3.08;;;;;;;-145.49;100.00;62790.56;4968975;28;20408;-72
2022/09/22 01:11:37;;;;;;;3.38;2.40;;;;;;;-145.49;100.00;62790.56;4968455;28;20038;-72
2022/09/22 01:14:25;;;;;;;3.35;2.58;;;;;;;-145.49;100.00;62790.56;4971006;28;20381;-72
2022/09/22 01:17:16;;;;;;;3.53;3.20;;;;;;;-145.49;100.00;62790.56;4986840;28;20508;-72
2022/09/22 01:20:22;;;;;;;3.58;2.80;;;;;;;-145.49;100.00;62790.56;4969975;28;20046;-72
2022/09/22 01:23:23;;;;;;;3.75;2.60;;;;;;;-145.49;100.00;62790.56;4966665;28;20050;-73
2022/09/22 01:26:16;;;;;;;2.70;2.47;;;;;;;-145.49;100.00;62790.56;4971892;28;20046;-73
2022/09/22 01:28:54;;;;;;;3.67;2.83;;;;;;;-145.49;100.00;62790.56;4969015;28;20062;-72
2022/09/22 01:31:30;;;;;;;6.78;3.58;;;;;;;-145.49;100.00;62790.56;4965110;28;20046;-73
2022/09/22 01:34:03;;;;;;;3.60;2.75;;;;;;;-145.49;100.00;62790.56;4984626;28;20044;-73
2022/09/22 01:36:43;;;;;;;13.93;2.80;;;;;;;-145.49;100.00;62790.56;4982808;28;20042;-72
2022/09/22 01:39:33;;;;;;;3.00;2.67;;;;;;;-145.49;100.00;62790.56;4970094;28;20043;-72
2022/09/22 01:42:05;;;;;;;4.18;2.50;;;;;;;-145.49;100.00;62790.56;4969730;28;20042;-72
2022/09/22 01:44:42;;;;;;;4.03;3.15;;;;;;;-145.49;100.00;62790.56;4969312;28;20081;-73
2022/09/22 01:47:18;;;;;;;2.75;2.03;;;;;;;-145.49;100.00;62790.56;4957288;28;20120;-72
2022/09/22 01:49:56;;;;;;;2.75;2.55;;;;;;;-145.49;100.00;62790.56;4985582;28;20364;-73
2022/09/22 01:52:34;;;;;;;2.78;2.42;;;;;;;-145.49;100.00;62790.56;4969817;28;20034;-72
2022/09/22 01:55:09;;;;;;;3.00;2.38;;;;;;;-145.49;100.00;62790.56;4967393;28;20047;-73
2022/09/22 01:57:51;;;;;;;6.93;3.00;;;;;;;-145.49;100.00;62790.56;4966341;28;20041;-72
2022/09/22 02:00:17;;;;;;;2.60;2.40;;;;;;;-145.49;100.00;62790.56;4970596;28;20384;-72
2022/09/22 02:02:58;;;;;;;7.20;3.63;;;;;;;-145.49;100.00;62790.56;4964842;28;20038;-73
2022/09/22 02:05:33;;;;;;;2.65;2.03;;;;;;;-145.49;100.00;62790.56;4961774;28;20406;-73
2022/09/22 02:08:03;;;;;;;5.65;2.92;;;;;;;-145.49;100.00;62790.56;4969349;28;20053;-72
2022/09/22 02:10:37;;;;;;;4.38;3.97;;;;;;;-145.49;100.00;62790.56;4985747;28;20400;-73
2022/09/22 02:13:06;;;;;;;3.47;3.17;;;;;;;-145.49;100.00;62790.56;4970911;28;20515;-72
2022/09/22 02:18:35;;;;;;;11.27;3.30;;;;;;;-145.49;100.00;62790.56;4957460;28;20055;-73
2022/09/22 02:21:02;;;;;;;5.47;2.85;;;;;;;-145.49;100.00;62790.56;4960717;28;20393;-73
2022/09/22 02:23:31;;;;;;;7.22;2.88;;;;;;;-145.49;100.00;62790.56;4971675;28;20038;-72
2022/09/22 02:26:02;;;;;;;5.20;2.75;;;;;;;-145.49;100.00;62790.56;4972239;28;20404;-72
2022/09/22 02:28:31;;;;;;;4.97;3.72;;;;;;;-145.49;100.00;62790.56;4972737;28;20034;-72
2022/09/22 02:31:02;;;;;;;5.55;3.05;;;;;;;-145.49;100.00;62790.56;4973398;28;20031;-73
2022/09/22 02:33:37;;;;;;;3.00;2.17;;;;;;;-145.49;100.00;62790.56;4957614;28;20057;-73
2022/09/22 02:36:22;;;;;;;2.75;2.50;;;;;;;-145.49;100.00;62790.56;4972851;28;20034;-73
2022/09/22 02:39:05;;;;;;;3.38;2.85;;;;;;;-145.49;100.00;62790.56;4940342;28;20043;-73
2022/09/22 02:41:46;;;;;;;3.78;2.00;;;;;;;-145.49;100.00;62790.56;4974287;28;20037;-73
2022/09/22 02:44:24;;;;;;;9.18;3.42;;;;;;;-145.49;100.00;62790.56;4973484;28;20051;-73
2022/09/22 02:47:02;;;;;;;3.95;2.55;;;;;;;-145.49;100.00;62790.56;4972453;28;20087;-73
2022/09/22 02:49:29;;;;;;;4.30;2.97;;;;;;;-145.49;100.00;62790.56;4973313;28;20038;-72
2022/09/22 02:51:58;;;;;;;2.58;2.38;;;;;;;-145.49;100.00;62790.56;4976200;28;20038;-72
2022/09/22 02:54:29;;;;;;;5.20;2.83;;;;;;;-145.49;100.00;62790.56;4973988;28;20045;-72
2022/09/22 02:56:58;;;;;;;5.57;3.22;;;;;;;-145.49;100.00;62790.56;4972429;28;20035;-73
2022/09/22 02:59:24;;;;;;;3.13;2.55;;;;;;;-145.49;100.00;62790.56;4983236;28;20046;-72
2022/09/22 03:01:50;;;;;;;7.78;3.88;;;;;;;-145.49;100.00;62790.56;4976349;28;20038;-72
2022/09/22 03:04:16;;;;;;;5.07;3.35;;;;;;;-145.49;100.00;62790.56;4972037;28;20038;-73
2022/09/22 03:06:45;;;;;;;4.05;3.45;;;;;;;-145.49;100.00;62790.56;4972364;28;20037;-73
2022/09/22 03:09:11;;;;;;;2.97;2.60;;;;;;;-145.49;100.00;62790.56;4965207;28;20488;-73
2022/09/22 03:11:37;;;;;;;2.25;2.05;;;;;;;-145.49;100.00;62790.56;4972149;28;20034;-73
2022/09/22 03:14:06;;;;;;;4.60;2.05;;;;;;;-145.49;100.00;62790.56;4989507;28;20035;-72
2022/09/22 03:16:34;;;;;;;2.90;2.28;;;;;;;-145.49;100.00;62790.56;4982327;28;20039;-73
2022/09/22 03:19:00;;;;;;;4.30;3.53;;;;;;;-145.49;100.00;62790.56;4984658;28;20043;-73
2022/09/22 03:21:27;;;;;;;4.05;2.75;;;;;;;-145.49;100.00;62790.56;4986119;28;20045;-72
2022/09/22 03:23:53;;;;;;;4.05;3.25;;;;;;;-145.49;100.00;62790.56;4973500;28;20468;-72
2022/09/22 03:26:21;;;;;;;2.85;2.65;;;;;;;-145.49;100.00;62790.56;4973631;28;20035;-73
2022/09/22 03:28:47;;;;;;;3.33;2.38;;;;;;;-145.49;100.00;62790.56;4975936;28;20051;-73
2022/09/22 03:31:13;;;;;;;3.22;2.85;;;;;;;-145.49;100.00;62790.56;4972213;28;20030;-73
2022/09/22 03:33:42;;;;;;;2.70;2.22;;;;;;;-145.49;100.00;62790.56;4970168;28;20043;-73
2022/09/22 03:36:08;;;;;;;5.15;2.78;;;;;;;-145.49;100.00;62790.56;4972915;28;20404;-73
2022/09/22 03:38:34;;;;;;;3.92;2.88;;;;;;;-145.49;100.00;62790.56;4987388;28;20028;-73
2022/09/22 03:41:01;;;;;;;6.18;3.50;;;;;;;-145.49;100.00;62790.56;4970458;28;20412;-72
2022/09/22 03:43:27;;;;;;;2.78;2.47;;;;;;;-145.49;100.00;62790.56;4972815;28;20039;-74
2022/09/22 03:46:00;;;;;;;2.88;1.90;;;;;;;-145.49;100.00;62790.56;4974350;28;20377;-73
2022/09/22 03:48:31;;;;;;;4.57;3.63;;;;;;;-145.49;100.00;62790.56;4956383;28;20058;-73
2022/09/22 03:50:58;;;;;;;4.30;2.70;;;;;;;-145.49;100.00;62790.56;4969796;28;20038;-73
2022/09/22 03:53:26;;;;;;;3.63;3.05;;;;;;;-145.49;100.00;62790.56;4973826;28;20144;-72
2022/09/22 03:56:04;;;;;;;3.92;2.45;;;;;;;-145.49;100.00;62790.56;4986778;28;20053;-72
2022/09/22 03:58:30;;;;;;;4.55;2.88;;;;;;;-145.49;100.00;62790.56;4971712;28;20471;-72
2022/09/22 04:00:56;;;;;;;5.13;2.90;;;;;;;-145.49;100.00;62790.56;4969897;28;20039;-73
2022/09/22 04:03:23;;;;;;;3.22;2.10;;;;;;;-145.49;100.00;62790.56;4971978;28;20045;-72
2022/09/22 04:05:51;;;;;;;3.13;2.53;;;;;;;-145.49;100.00;62790.56;4973219;28;20042;-72
2022/09/22 04:08:20;;;;;;;3.53;1.92;;;;;;;-145.49;100.00;62790.56;4973395;28;20038;-72
2022/09/22 04:10:46;;;;;;;5.18;2.95;;;;;;;-145.49;100.00;62790.56;4975922;28;20031;-73
2022/09/22 04:13:13;;;;;;;5.13;3.47;;;;;;;-145.49;100.00;62790.56;4971952;28;20045;-72
2022/09/22 04:15:42;;;;;;;3.90;3.10;;;;;;;-145.49;100.00;62790.56;4971763;28;20035;-72
2022/09/22 04:18:13;;;;;;;3.92;3.53;;;;;;;-145.49;100.00;62790.56;4968838;28;20489;-72
2022/09/22 04:20:43;;;;;;;3.65;3.22;;;;;;;-145.49;100.00;62790.56;4969740;28;20054;-73
2022/09/22 04:23:13;;;;;;;2.70;2.20;;;;;;;-145.49;100.00;62790.56;4954741;28;20030;-73
2022/09/22 04:25:42;;;;;;;3.70;2.60;;;;;;;-145.49;100.00;62790.56;4972879;28;20054;-72
2022/09/22 04:28:08;;;;;;;2.78;2.58;;;;;;;-145.49;100.00;62790.56;4971098;28;20046;-72
2022/09/22 04:30:38;;;;;;;2.75;2.20;;;;;;;-145.49;100.00;62790.56;4967981;28;20046;-73
2022/09/22 04:33:07;;;;;;;4.80;3.20;;;;;;;-145.49;100.00;62790.56;4971598;28;20045;-74
2022/09/22 04:35:35;;;;;;;2.97;2.55;;;;;;;-145.49;100.00;62790.56;4972985;28;20103;-72
2022/09/22 04:38:02;;;;;;;4.07;2.70;;;;;;;-145.49;100.00;62790.56;4972902;28;20034;-73
2022/09/22 04:40:32;;;;;;;4.30;3.60;;;;;;;-145.49;100.00;62790.56;4986382;28;20035;-72
2022/09/22 04:42:58;;;;;;;5.85;3.60;;;;;;;-145.49;100.00;62790.56;4972288;28;20035;-73
2022/09/22 04:45:27;;;;;;;3.95;3.45;;;;;;;-145.49;100.00;62790.56;4971469;28;20039;-73
2022/09/22 04:47:53;;;;;;;4.07;3.28;;;;;;;-145.49;100.00;62790.56;4981701;28;20042;-72
2022/09/22 04:50:23;;;;;;;4.25;3.25;;;;;;;-145.49;100.00;62790.56;4977495;28;20041;-73
2022/09/22 04:52:55;;;;;;;4.28;3.15;;;;;;;-145.49;100.00;62790.56;4954797;28;20523;-73
2022/09/22 04:55:26;;;;;;;3.10;2.72;;;;;;;-145.49;100.00;62790.56;4970143;28;20038;-72
2022/09/22 04:57:55;;;;;;;4.72;3.50;;;;;;;-145.49;100.00;62790.56;4971354;28;20039;-72
2022/09/22 05:00:25;;;;;;;3.00;2.70;;;;;;;-145.49;100.00;62790.56;4971203;28;20041;-73
2022/09/22 05:02:54;;;;;;;4.75;2.47;;;;;;;-145.49;100.00;62790.56;4971051;28;20070;-72
2022/09/22 05:05:23;;;;;;;5.13;3.55;;;;;;;-145.49;100.00;62790.56;4972355;28;20047;-73
2022/09/22 05:07:53;;;;;;;2.72;2.50;;;;;;;-145.49;100.00;62790.56;4972114;28;20432;-73
2022/09/22 05:10:26;;;;;;;4.05;2.30;;;;;;;-145.49;100.00;62790.56;4974563;28;21357;-73
2022/09/22 05:12:54;;;;;;;7.05;2.88;;;;;;;-145.49;100.00;62790.56;4970566;28;20407;-73
2022/09/22 05:15:21;;;;;;;4.47;2.90;;;;;;;-145.49;100.00;62790.56;4972112;28;20042;-73
2022/09/22 05:17:52;;;;;;;2.90;2.58;;;;;;;-145.49;100.00;62790.56;4975835;28;20034;-73
2022/09/22 05:20:22;;;;;;;3.00;2.60;;;;;;;-145.49;100.00;62790.56;4970374;28;20412;-73
2022/09/22 05:22:48;;;;;;;4.43;3.03;;;;;;;-145.49;100.00;62790.56;4979289;28;20044;-73
2022/09/22 05:25:19;;;;;;;4.00;2.40;;;;;;;-145.49;100.00;62790.56;4952444;28;20038;-72
2022/09/22 05:27:47;;;;;;;3.40;2.97;;;;;;;-145.49;100.00;62790.56;4972226;28;20038;-72
2022/09/22 05:30:14;;;;;;;3.85;3.53;;;;;;;-145.49;100.00;62790.56;4977706;28;20388;-73
2022/09/22 05:32:44;;;;;;;6.28;4.35;;;;;;;-145.49;100.00;62790.56;4973393;28;20034;-73
2022/09/22 05:35:16;;;;;;;8.23;3.42;;;;;;;-145.49;100.00;62790.56;4956419;28;20042;-73
2022/09/22 05:37:46;;;;;;;5.40;3.72;;;;;;;-145.49;100.00;62790.56;4985296;28;20034;-73
2022/09/22 05:40:22;;;;;;;5.78;3.30;;;;;;;-145.49;100.00;62790.56;4966599;28;20035;-74
2022/09/22 05:42:50;;;;;;;3.30;2.38;;;;;;;-145.49;100.00;62790.56;4973510;28;20408;-73
2022/09/22 05:45:18;;;;;;;4.63;2.80;;;;;;;-145.49;100.00;62790.56;4971925;28;20046;-73
2022/09/22 05:47:44;;;;;;;3.78;3.42;;;;;;;-145.49;100.00;62790.56;4975359;28;20041;-73
2022/09/22 05:50:13;;;;;;;5.00;2.33;;;;;;;-145.49;100.00;62790.56;4970726;28;20030;-73
2022/09/22 05:52:39;;;;;;;4.65;3.05;;;;;;;-145.49;100.00;62790.56;4970259;28;20038;-72
2022/09/22 05:55:07;;;;;;;5.07;2.85;;;;;;;-145.49;100.00;62790.56;4970528;28;20035;-72
2022/09/22 05:57:33;;;;;;;3.03;2.13;;;;;;;-145.49;100.00;62790.56;4986097;28;20038;-72
2022/09/22 05:59:59;;;;;;;8.20;4.60;;;;;;;-145.49;100.00;62790.56;4974396;28;20043;-74
2022/09/22 06:02:25;;;;;;;5.05;3.90;;;;;;;-145.49;100.00;62790.56;4976764;28;20399;-73
2022/09/22 06:04:55;;;;;;;4.50;3.53;;;;;;;-145.49;100.00;62790.56;4979728;28;20038;-72
2022/09/22 06:07:26;;;;;;;6.15;4.82;;;;;;;-145.49;100.00;62790.56;4974757;28;20038;-73
2022/09/22 06:10:00;;;;;;;8.40;4.85;;;;;;;-145.49;100.00;62790.56;4974348;28;20039;-74
2022/09/22 06:12:26;;;;;;;4.82;3.38;;;;;;;-145.49;100.00;62790.56;4974317;28;20405;-74
2022/09/22 06:14:53;;;;;;;7.32;4.60;;;;;;;-145.49;100.00;62790.56;4974460;28;20461;-74
2022/09/22 06:17:23;;;;;;;5.85;4.00;;;;;;;-145.49;100.00;62790.56;4976348;28;20046;-74
2022/09/22 06:19:53;;;;;;;5.40;4.45;;;;;;;-145.49;100.00;62790.56;4973940;28;20050;-74
2022/09/22 06:22:19;;;;;;;6.25;4.90;;;;;;;-145.49;100.00;62790.56;4975466;28;20041;-73
2022/09/22 06:24:48;;;;;;;8.70;6.40;;;;;;;-145.49;100.00;62790.56;4975419;28;20045;-73
2022/09/22 06:27:17;;;;;;;7.85;6.22;;;;;;;-145.49;100.00;62790.56;4975943;28;20422;-74
2022/09/22 06:29:45;;;;;;;6.50;5.30;;;;;;;-145.49;100.00;62790.56;4973599;28;20030;-74
2022/09/22 06:32:14;;;;;;;7.68;6.53;;;;;;;-145.49;100.00;62790.56;4975047;28;20030;-74
2022/09/22 06:34:40;;;;;;;10.73;6.72;;;;;;;-145.49;100.00;62790.56;4975042;28;20046;-74
2022/09/22 06:37:12;;;;;;;9.15;6.47;;;;;;;-145.49;100.00;62790.56;4975468;28;20035;-73
2022/09/22 06:39:41;;;;;;;14.20;6.35;;;;;;;-145.49;100.00;62790.56;4972787;28;20048;-74
2022/09/22 06:42:09;;;;;;;5.22;3.38;;;;;;;-145.49;100.00;62790.56;4975383;28;20042;-73
2022/09/22 06:44:40;;;;;;;5.13;3.75;;;;;;;-145.49;100.00;62790.56;4976709;28;20035;-73
2022/09/22 06:47:11;;;;;;;5.10;3.67;;;;;;;-145.49;100.00;62790.56;4958348;28;20404;-73
2022/09/22 06:49:37;;;;;;;5.32;3.92;;;;;;;-145.49;100.00;62790.56;4988508;28;20030;-74
2022/09/22 06:52:04;;;;;;;5.05;3.25;;;;;;;-145.49;100.00;62790.56;4969587;28;20042;-74
2022/09/22 06:54:30;;;;;;;5.68;3.75;;;;;;;-145.49;100.00;62790.56;4956008;28;20035;-73
2022/09/22 06:56:58;;;;;;;14.20;3.50;;;;;;;-145.49;100.00;62790.56;4977276;28;20480;-73
2022/09/22 06:59:27;;;;;;;4.05;3.25;;;;;;;-145.49;100.00;62790.56;4980818;28;20377;-73
2022/09/22 07:01:53;;;;;;;3.60;3.20;;;;;;;-145.49;100.00;62790.56;4977525;28;20045;-73
2022/09/22 07:04:21;;;;;;;3.38;2.50;;;;;;;-145.49;100.00;62790.56;4975002;28;20034;-74
2022/09/22 07:06:52;;;;;;;3.50;2.92;;;;;;;-145.49;100.00;62790.56;4974269;28;20050;-74
2022/09/22 07:09:25;;;;;;;3.15;2.47;;;;;;;-145.49;100.00;62790.56;4977928;28;20034;-74
2022/09/22 07:11:54;;;;;;;2.60;1.95;;;;;;;-145.49;100.00;62790.56;4962196;28;20412;-73
2022/09/22 07:14:21;;;;;;;2.92;2.67;;;;;;;-145.49;100.00;62790.56;4987716;28;20504;-74
2022/09/22 07:16:56;;;;;;;6.72;2.90;;;;;;;-145.49;100.00;62790.56;4987918;28;20207;-74
2022/09/22 07:19:34;;;;;;;3.58;2.58;;;;;;;-145.49;100.00;62790.56;4991612;28;20041;-74
2022/09/22 07:22:01;;;;;;;3.33;3.03;;;;;;;-145.49;100.00;62790.56;4973469;28;20038;-74
2022/09/22 07:24:28;;;;;;;2.70;2.15;;;;;;;-145.49;100.00;62790.56;4977528;28;20038;-74
2022/09/22 07:26:56;;;;;;;2.65;2.42;;;;;;;-145.49;100.00;62790.56;4975764;28;20420;-74
2022/09/22 07:29:23;;;;;;;5.07;2.10;;;;;;;-145.49;100.00;62790.56;4980001;28;20061;-74
2022/09/22 07:31:49;;;;;;;3.50;2.33;;;;;;;-145.49;100.00;62790.56;4974622;28;20236;-74
2022/09/22 07:34:18;;;;;;;4.18;3.13;;;;;;;-145.49;100.00;62790.56;4973714;28;20038;-74
2022/09/22 07:36:52;;;;;;;4.03;2.00;;;;;;;-145.49;100.00;62790.56;4975182;28;20508;-74
2022/09/22 07:39:22;;;;;;;1.63;1.23;;;;;;;-145.49;100.00;62790.56;4974069;28;20402;-74
2022/09/22 07:41:48;;;;;;;2.80;1.67;;;;;;;-145.49;100.00;62790.56;4977418;28;20039;-73
2022/09/22 07:47:02;;;;;;;3.30;1.75;;;;;;;-145.49;100.00;62790.56;4972623;28;20042;-74
2022/09/22 07:49:28;;;;;;;2.50;2.08;;;;;;;-145.49;100.00;62790.56;4973182;28;20035;-74
2022/09/22 07:51:57;;;;;;;3.15;2.38;;;;;;;-145.49;100.00;62790.56;4962826;28;20393;-74
2022/09/22 07:54:28;;;;;;;2.05;1.67;;;;;;;-145.49;100.00;62790.56;4971404;28;20042;-74
2022/09/22 07:56:57;;;;;;;3.75;2.08;;;;;;;-145.49;100.00;62790.56;4970287;28;20899;-75
2022/09/22 07:59:26;;;;;;;3.45;1.70;;;;;;;-145.49;100.00;62790.56;4966188;28;20119;-72
2022/09/22 08:01:52;;;;;;;2.75;2.10;;;;;;;-145.49;100.00;62790.56;4938697;28;20378;-74
2022/09/22 08:04:25;;;;;;;2.80;2.25;;;;;;;-145.49;100.00;62790.56;4971512;28;20042;-74
2022/09/22 08:06:54;;;;;;;3.13;2.13;;;;;;;-145.49;100.00;62790.56;4987341;28;20050;-74
2022/09/22 08:09:22;;;;;;;7.30;2.53;;;;;;;-145.49;100.00;62790.56;4974147;28;20038;-75
2022/09/22 08:11:49;;;;;;;2.20;2.00;;;;;;;-145.49;100.00;62790.56;4973524;28;20031;-74
2022/09/22 08:14:22;;;;;;;2.17;1.90;;;;;;;-145.49;100.00;62790.56;4973114;28;20043;-74
2022/09/22 08:16:52;;;;;;;2.20;1.80;;;;;;;-145.49;100.00;62790.56;4973363;28;20035;-74
2022/09/22 08:19:22;;;;;;;2.25;2.00;;;;;;;-145.49;100.00;62790.56;4973932;28;20053;-74
2022/09/22 08:21:53;;;;;;;3.83;2.28;;;;;;;-145.49;100.00;62790.56;4978435;28;20477;-75
2022/09/22 08:24:20;;;;;;;4.35;1.92;;;;;;;-145.49;100.00;62790.56;4975535;28;20051;-75
2022/09/22 08:26:51;;;;;;;2.67;1.83;;;;;;;-145.49;100.00;62790.56;4972886;28;20046;-75
2022/09/22 08:29:20;;;;;;;2.35;2.13;;;;;;;-145.49;100.00;62790.56;4970788;28;20042;-76
2022/09/22 08:31:53;;;;;;;4.03;3.17;;;;;;;-145.49;100.00;62790.56;4956885;28;20032;-76
2022/09/22 08:34:24;;;;;;;2.25;2.05;;;;;;;-145.49;100.00;62790.56;4955792;28;20047;-76
2022/09/22 08:36:54;;;;;;;2.47;2.25;;;;;;;-145.49;100.00;62790.56;4957009;28;20042;-75
2022/09/22 08:39:23;;;;;;;3.40;2.30;;;;;;;-145.49;100.00;62790.56;4970123;28;20042;-75
2022/09/22 08:42:06;;;;;;;3.88;2.47;;;;;;;-145.49;100.00;62790.56;4971251;28;20039;-75
2022/09/22 08:44:57;;;;;;;4.10;2.25;;;;;;;-145.49;100.00;62790.56;4971375;28;20038;-75
2022/09/22 08:53:31;;;;;;;2.05;1.83;;;;;;;-145.49;100.00;62790.56;4972145;28;20037;-75
2022/09/22 08:56:05;;;;;;;3.28;1.98;;;;;;;-145.49;100.00;62790.56;4971475;28;20042;-75
2022/09/22 08:59:03;;;;;;;2.25;1.88;;;;;;;-145.49;100.00;62790.56;4953670;28;20041;-75
2022/09/22 09:01:51;;;;;;;1.70;1.60;;;;;;;-145.49;100.00;62790.56;4963485;28;20050;-74
2022/09/22 09:04:50;;;;;;;4.97;2.35;;;;;;;-145.49;100.00;62790.56;4985365;28;20058;-74
2022/09/22 09:07:42;;;;;;;3.03;2.35;;;;;;;-145.49;100.00;62790.56;4990152;28;20042;-75
2022/09/22 09:10:33;;;;;;;3.60;1.98;;;;;;;-145.49;100.00;62790.56;4971692;28;20513;-75
2022/09/22 09:13:08;;;;;;;2.65;2.15;;;;;;;-145.49;100.00;62790.56;4972836;28;20082;-74
2022/09/22 09:16:03;;;;;;;2.47;1.95;;;;;;;-145.49;100.00;62790.56;4971120;28;20400;-74
2022/09/22 09:18:38;;;;;;;3.92;3.22;;;;;;;-145.49;100.00;62790.56;4973751;28;20381;-74
2022/09/22 09:21:12;;;;;;;3.22;1.70;;;;;;;-145.49;100.00;62790.56;4954105;28;20038;-74
2022/09/22 09:23:46;;;;;;;3.33;2.00;;;;;;;-145.49;100.00;62790.56;4967694;28;20034;-74
2022/09/22 09:26:17;;;;;;;3.00;2.30;;;;;;;-145.49;100.00;62790.56;4970803;28;20034;-74
2022/09/22 09:28:59;;;;;;;3.30;1.67;;;;;;;-145.49;100.00;62790.56;4953501;28;20042;-74
2022/09/22 09:31:45;;;;;;;2.20;1.42;;;;;;;-145.49;100.00;62790.56;4970348;28;20027;-74
2022/09/22 09:34:16;;;;;;;1.30;1.10;;;;;;;-145.49;100.00;62790.56;4971358;28;20039;-75
2022/09/22 09:36:48;;;;;;;2.40;1.63;;;;;;;-145.49;100.00;62790.56;4981566;28;20049;-74
2022/09/22 09:39:38;;;;;;;2.08;1.75;;;;;;;-145.49;100.00;62790.56;4974409;28;20046;-74
2022/09/22 09:42:16;;;;;;;7.25;1.30;;;;;;;-145.49;100.00;62790.56;4963145;28;20397;-74
2022/09/22 09:44:44;;;;;;;4.07;1.88;;;;;;;-145.49;100.00;62790.56;4964073;28;20286;-74
2022/09/22 09:47:48;;;;;;;1.73;1.50;;;;;;;-145.49;100.00;62790.56;4961966;28;20401;-74
2022/09/22 09:50:18;;;;;;;1.63;1.50;;;;;;;-145.49;100.00;62790.56;4955773;28;22049;-74
2022/09/22 09:52:47;;;;;;;1.70;1.30;;;;;;;-145.49;100.00;62790.56;4961867;28;20038;-74
2022/09/22 09:55:28;;;;;;;2.75;2.03;;;;;;;-145.49;100.00;62790.56;4968480;28;20042;-74
2022/09/22 10:00:30;;;;;;;1.98;1.02;;;;;;;-145.49;100.00;62790.56;4970297;28;20400;-74
2022/09/22 10:01:14;;;;;;;2.15;1.60;;;;;;;-145.49;100.00;62790.56;4969540;28;20043;-74
2022/09/22 10:03:46;;;;;;;1.70;0.95;;;;;;;-145.49;100.00;62790.56;4950785;28;20065;-74
2022/09/22 10:06:23;;;;;;;1.48;1.10;;;;;;;-145.49;100.00;62790.56;4974414;28;20034;-74
2022/09/22 10:08:53;;;;;;;3.22;1.13;;;;;;;-145.49;100.00;62790.56;4971280;28;20038;-74
2022/09/22 10:11:30;;;;;;;1.30;1.08;;;;;;;-145.49;100.00;62790.56;4968281;28;20690;-74
2022/09/22 10:13:57;;;;;;;2.85;1.67;;;;;;;-145.49;100.00;62790.56;4981129;28;20035;-74
2022/09/22 10:16:33;;;;;;;1.70;1.05;;;;;;;-145.49;100.00;62790.56;4967455;28;20381;-74
2022/09/22 10:19:18;;;;;;;3.42;1.55;;;;;;;-145.49;100.00;62790.56;4969429;28;20043;-74
2022/09/22 10:21:47;;;;;;;1.75;1.10;;;;;;;-145.49;100.00;62790.56;4968783;28;20507;-74
2022/09/22 10:24:36;;;;;;;3.53;1.35;;;;;;;-145.49;100.00;62790.56;4969938;28;20030;-74
2022/09/22 10:27:04;;;;;;;1.80;1.40;;;;;;;-145.49;100.00;62790.56;4982616;28;20373;-74
2022/09/22 10:29:33;;;;;;;2.05;1.20;;;;;;;-145.49;100.00;62790.56;4970582;28;20043;-74
2022/09/22 10:32:05;;;;;;;1.63;1.38;;;;;;;-145.49;100.00;62790.56;4977800;28;20395;-74
2022/09/22 10:34:46;;;;;;;1.42;1.10;;;;;;;-145.49;100.00;62790.56;4982178;28;20464;-73
2022/09/22 10:37:15;;;;;;;1.38;1.00;;;;;;;-145.49;100.00;62790.56;4988569;28;20046;-73
2022/09/22 10:39:52;;;;;;;1.20;0.90;;;;;;;-145.49;100.00;62790.56;4970582;28;20038;-73
2022/09/22 10:42:44;;;;;;;1.58;1.17;;;;;;;-145.49;100.00;62790.56;4982730;28;20038;-72
2022/09/22 10:45:18;;;;;;;1.55;1.20;;;;;;;-145.49;100.00;62790.56;4972666;28;20476;-72
2022/09/22 10:48:09;;;;;;;1.50;1.00;;;;;;;-145.49;100.00;62790.56;4977313;28;20456;-73
2022/09/22 10:50:44;;;;;;;;;;;;;;;-145.49;100.00;62790.56;4973161;28;20038;-72
2022/09/22 10:53:37;;;;;;;1.27;1.15;;;;;;;-145.49;100.00;62790.56;4956831;28;19921;-72
2022/09/22 10:56:09;;;;;;;1.60;1.10;;;;;;;-145.49;100.00;62790.56;4984453;28;20481;-73
2022/09/22 10:58:38;;;;;;;1.70;1.20;;;;;;;-145.49;100.00;62790.56;4985743;28;20039;-73
2022/09/22 11:01:25;;;;;;;3.60;1.17;;;;;;;-145.49;100.00;62790.56;4974781;28;20035;-72
2022/09/22 11:04:15;;;;;;;2.85;1.63;;;;;;;-145.49;100.00;62790.56;4955269;28;20034;-72
2022/09/22 11:13:28;;;;;;;2.42;1.10;;;;;;;-145.49;100.00;62790.56;4968084;28;20043;-73
2022/09/22 11:16:27;;;;;;;1.40;1.27;;;;;;;-145.49;100.00;62790.56;4977093;28;20050;-74
2022/09/22 11:19:30;;;;;;;2.45;1.30;;;;;;;-145.49;100.00;62790.56;4988339;28;20061;-73
2022/09/22 11:22:34;;;;;;;2.05;1.60;;;;;;;-145.49;100.00;62790.56;4981356;28;20034;-74
2022/09/22 11:25:26;;;;;;;2.03;1.23;;;;;;;-145.49;100.00;62790.56;4972839;28;20042;-74
2022/09/22 11:28:19;;;;;;;1.73;1.50;;;;;;;-145.49;100.00;62790.56;4974127;28;20511;-73
2022/09/22 11:30:50;;;;;;;2.07;1.80;;;;;;;-145.49;100.00;62790.56;4983504;28;20043;-73
2022/09/22 11:33:40;;;;;;;2.75;1.08;;;;;;;-145.49;100.00;62790.56;4956810;28;20651;-72
2022/09/22 11:36:21;;;;;;;2.00;1.30;;;;;;;-145.49;100.00;62790.56;4974462;28;20035;-73
2022/09/22 11:39:06;;;;;;;3.05;1.40;;;;;;;-145.49;100.00;62790.56;4971143;28;20093;-73
2022/09/22 11:41:54;;;;;;;2.67;1.80;;;;;;;-145.49;100.00;62790.56;4971883;28;20039;-73
2022/09/22 11:44:42;;;;;;;5.28;1.40;;;;;;;-145.49;100.00;62790.56;4975703;28;20042;-75
2022/09/22 11:47:08;;;;;;;2.38;1.85;;;;;;;-145.49;100.00;62790.56;4988894;28;20042;-72
2022/09/22 11:49:46;;;;;;;2.50;1.33;;;;;;;-145.49;100.00;62790.56;4973123;28;20039;-73
2022/09/22 11:52:46;;;;;;;2.80;0.90;;;;;;;-145.49;100.00;62790.56;4971053;28;20039;-73
2022/09/22 11:55:12;;;;;;;5.32;1.40;;;;;;;-145.49;100.00;62790.56;4972854;28;20031;-72